Time;durP1;ratioP1;P1;durP2;ratioP2;P2;SDS_P1;SDS_P2;PMS_P1;PMS_P2;Temp;Humidity;BMP_temperature;BMP_pressure;BME280_temperature;BME280_humidity;BME280_pressure;Samples;Min_cycle;Max_cycle;Signal;HPM_P1;HPM_P2
2021/05/23 00:01:29;;;;;;;;;;;14.10;99.90;;;;;;5115125;28;19918;-72
2021/05/23 00:03:56;;;;;;;;;;;14.20;99.90;;;;;;5114901;28;19946;-71
2021/05/23 00:06:23;;;;;;;;;;;14.20;99.90;;;;;;5115024;28;20426;-71
2021/05/23 00:08:50;;;;;;;;;;;14.20;99.90;;;;;;5114443;28;20308;-70
2021/05/23 00:11:17;;;;;;;;;;;14.20;99.90;;;;;;5114739;28;19977;-72
2021/05/23 00:13:48;;;;;;;;;;;14.20;99.90;;;;;;5114709;28;20000;-72
2021/05/23 00:16:22;;;;;;;;;;;14.30;99.90;;;;;;5114690;28;19915;-72
2021/05/23 00:18:50;;;;;;;;;;;14.40;99.90;;;;;;5114495;28;20362;-71
2021/05/23 00:21:18;;;;;;;;;;;14.40;99.90;;;;;;5114584;28;19951;-71
2021/05/23 00:23:45;;;;;;;;;;;14.50;99.90;;;;;;5114526;28;19907;-72
2021/05/23 00:26:13;;;;;;;;;;;14.50;99.90;;;;;;5114545;28;19916;-70
2021/05/23 00:28:40;;;;;;;;;;;14.50;99.90;;;;;;5114533;28;19947;-71
2021/05/23 00:31:07;;;;;;;;;;;14.60;99.90;;;;;;5114398;28;19953;-71
2021/05/23 00:33:34;;;;;;;;;;;14.60;99.90;;;;;;5114437;28;19908;-71
2021/05/23 00:36:01;;;;;;;;;;;14.60;99.90;;;;;;5114716;28;19919;-71
2021/05/23 00:38:27;;;;;;;;;;;14.70;99.90;;;;;;5115169;28;20273;-71
2021/05/23 00:40:54;;;;;;;;;;;14.70;99.90;;;;;;5116057;28;20423;-72
2021/05/23 00:43:21;;;;;;;;;;;14.80;99.90;;;;;;5116175;28;19996;-72
2021/05/23 00:45:49;;;;;;;;;;;14.90;99.90;;;;;;5116685;28;19927;-70
2021/05/23 00:48:20;;;;;;;;;;;15.00;99.90;;;;;;5114221;28;20341;-73
2021/05/23 00:50:47;;;;;;;;;;;15.00;99.90;;;;;;5113949;28;19908;-71
2021/05/23 00:53:14;;;;;;;;;;;15.00;99.90;;;;;;5113990;28;19927;-72
2021/05/23 00:55:41;;;;;;;;;;;15.00;99.90;;;;;;5114011;28;20041;-72
2021/05/23 00:58:08;;;;;;;;;;;15.10;99.90;;;;;;5113865;28;19908;-72
2021/05/23 01:00:41;;;;;;;;;;;15.10;99.90;;;;;;5113850;28;19953;-71
2021/05/23 01:03:27;;;;;;;;;;;15.20;99.90;;;;;;5113508;28;19908;-71
2021/05/23 01:05:54;;;;;;;;;;;15.20;99.90;;;;;;5098368;28;19907;-70
2021/05/23 01:08:22;;;;;;;;;;;15.20;99.90;;;;;;5113833;28;19911;-72
2021/05/23 01:10:53;;;;;;;;;;;15.30;99.90;;;;;;5075372;28;20381;-71
2021/05/23 01:13:37;;;;;;;;;;;15.30;99.90;;;;;;5072334;28;19923;-72
2021/05/23 01:16:07;;;;;;;;;;;15.30;99.90;;;;;;5073135;28;19954;-71
2021/05/23 01:18:40;;;;;;;;;;;15.30;99.90;;;;;;5073251;28;19991;-71
2021/05/23 01:21:08;;;;;;;;;;;15.40;99.90;;;;;;5072804;28;19947;-71
2021/05/23 01:23:43;;;;;;;;;;;15.40;99.90;;;;;;5073036;28;19908;-71
2021/05/23 01:26:13;;;;;;;;;;;15.50;99.90;;;;;;5073021;28;19995;-71
2021/05/23 01:28:49;;;;;;;;;;;15.60;99.90;;;;;;5072177;28;19909;-70
2021/05/23 01:31:19;;;;;;;;;;;15.60;99.90;;;;;;5072792;28;19913;-72
2021/05/23 01:33:53;;;;;;;;;;;15.60;99.90;;;;;;5072833;28;19935;-71
2021/05/23 01:36:23;;;;;;;;;;;15.70;99.90;;;;;;5072784;28;19908;-72
2021/05/23 01:38:50;;;;;;;;;;;15.70;99.90;;;;;;5072676;28;19908;-72
2021/05/23 01:41:17;;;;;;;;;;;15.80;99.90;;;;;;5072729;28;19954;-71
2021/05/23 01:43:44;;;;;;;;;;;15.80;99.90;;;;;;5072196;28;19921;-71
2021/05/23 01:46:12;;;;;;;;;;;15.90;99.90;;;;;;5076922;28;19913;-71
2021/05/23 01:48:38;;;;;;;;;;;16.00;99.90;;;;;;5077110;28;19909;-71
2021/05/23 01:51:05;;;;;;;;;;;16.00;99.90;;;;;;5076470;28;20400;-70
2021/05/23 01:53:33;;;;;;;;;;;16.10;99.90;;;;;;5076968;28;19912;-71
2021/05/23 01:55:59;;;;;;;;;;;16.10;99.90;;;;;;5076720;28;19995;-70
2021/05/23 01:58:26;;;;;;;;;;;16.10;99.90;;;;;;5075985;28;20286;-71
2021/05/23 02:00:53;;;;;;;;;;;16.30;99.90;;;;;;5076887;28;20286;-71
2021/05/23 02:03:21;;;;;;;;;;;16.40;99.90;;;;;;5076424;28;20355;-71
2021/05/23 02:05:50;;;;;;;;;;;16.50;99.90;;;;;;5076583;28;19912;-71
2021/05/23 02:08:18;;;;;;;;;;;16.60;99.90;;;;;;5076631;28;19908;-72
2021/05/23 02:10:45;;;;;;;;;;;16.60;99.90;;;;;;5076246;28;19909;-71
2021/05/23 02:13:12;;;;;;;;;;;16.70;99.90;;;;;;5075764;28;19917;-68
2021/05/23 02:15:39;;;;;;;;;;;16.70;99.90;;;;;;5076440;28;20008;-70
2021/05/23 02:18:06;;;;;;;;;;;16.80;99.90;;;;;;5108918;28;19909;-71
2021/05/23 02:20:33;;;;;;;;;;;16.80;99.90;;;;;;5076339;28;20382;-70
2021/05/23 02:23:01;;;;;;;;;;;16.80;99.90;;;;;;5075979;28;19916;-71
2021/05/23 02:25:28;;;;;;;;;;;16.80;99.90;;;;;;5076333;28;19909;-71
2021/05/23 02:27:57;;;;;;;;;;;16.90;99.90;;;;;;5075274;28;19934;-70
2021/05/23 02:30:28;;;;;;;;;;;16.90;99.90;;;;;;5074661;28;19908;-69
2021/05/23 02:32:55;;;;;;;;;;;17.00;99.90;;;;;;5075856;28;20381;-70
2021/05/23 02:35:23;;;;;;;;;;;16.90;99.90;;;;;;5075980;28;19908;-71
2021/05/23 02:37:50;;;;;;;;;;;17.00;99.90;;;;;;5075999;28;19909;-70
2021/05/23 02:40:18;;;;;;;;;;;17.00;99.90;;;;;;5076126;28;19909;-71
2021/05/23 02:42:45;;;;;;;;;;;17.00;99.90;;;;;;5074794;28;19919;-71
2021/05/23 02:45:14;;;;;;;;;;;17.00;99.90;;;;;;5075951;28;19912;-71
2021/05/23 02:47:41;;;;;;;;;;;17.10;99.90;;;;;;5108500;28;20339;-70
2021/05/23 02:50:12;;;;;;;;;;;17.10;99.90;;;;;;5075819;28;20341;-71
2021/05/23 02:52:39;;;;;;;;;;;17.20;99.90;;;;;;5075855;28;19924;-70
2021/05/23 02:55:06;;;;;;;;;;;17.30;99.90;;;;;;5075824;28;19909;-72
2021/05/23 02:57:34;;;;;;;;;;;17.40;99.90;;;;;;5074790;28;19999;-70
2021/05/23 03:00:01;;;;;;;;;;;17.60;99.90;;;;;;5076285;28;20301;-72
2021/05/23 03:02:27;;;;;;;;;;;17.70;99.90;;;;;;5075624;28;20004;-70
2021/05/23 03:04:54;;;;;;;;;;;17.90;99.90;;;;;;5075940;28;19909;-70
2021/05/23 03:07:22;;;;;;;;;;;18.00;99.90;;;;;;5075535;28;19935;-71
2021/05/23 03:09:49;;;;;;;;;;;18.00;99.90;;;;;;5075426;28;19962;-72
2021/05/23 03:12:16;;;;;;;;;;;18.00;99.90;;;;;;5074614;28;19916;-72
2021/05/23 03:14:43;;;;;;;;;;;18.10;99.90;;;;;;5075304;28;20050;-70
2021/05/23 03:17:10;;;;;;;;;;;18.10;99.90;;;;;;5075327;28;19927;-71
2021/05/23 03:19:37;;;;;;;;;;;18.20;99.90;;;;;;5075332;28;20374;-71
2021/05/23 03:22:05;;;;;;;;;;;18.30;99.90;;;;;;5075230;28;19916;-72
2021/05/23 03:24:33;;;;;;;;;;;18.30;99.90;;;;;;5075119;28;19948;-70
2021/05/23 03:27:00;;;;;;;;;;;18.30;99.90;;;;;;5074082;28;19915;-72
2021/05/23 03:29:27;;;;;;;;;;;18.30;99.90;;;;;;5075152;28;20351;-71
2021/05/23 03:31:53;;;;;;;;;;;18.20;99.90;;;;;;5075074;28;19913;-71
2021/05/23 03:34:20;;;;;;;;;;;18.20;99.90;;;;;;5075093;28;19967;-70
2021/05/23 03:36:46;;;;;;;;;;;18.20;99.90;;;;;;5074575;28;20304;-71
2021/05/23 03:39:13;;;;;;;;;;;18.10;99.90;;;;;;5074724;28;19909;-69
2021/05/23 03:41:40;;;;;;;;;;;18.20;99.90;;;;;;5074039;28;19912;-69
2021/05/23 03:44:07;;;;;;;;;;;18.10;99.90;;;;;;5074676;28;19920;-71
2021/05/23 03:46:33;;;;;;;;;;;18.20;99.90;;;;;;5074667;28;20344;-71
2021/05/23 03:49:00;;;;;;;;;;;18.30;99.90;;;;;;5074324;28;19915;-71
2021/05/23 03:51:29;;;;;;;;;;;18.30;99.90;;;;;;5074038;28;19942;-70
2021/05/23 03:53:56;;;;;;;;;;;18.40;99.90;;;;;;5074499;28;19919;-72
2021/05/23 03:56:23;;;;;;;;;;;18.30;99.90;;;;;;5074896;28;19908;-71
2021/05/23 03:58:49;;;;;;;;;;;18.20;99.90;;;;;;5074321;28;19908;-72
2021/05/23 04:01:16;;;;;;;;;;;18.10;99.90;;;;;;5074418;28;20057;-71
2021/05/23 04:03:43;;;;;;;;;;;18.00;99.90;;;;;;5074262;28;19995;-71
2021/05/23 04:06:10;;;;;;;;;;;17.90;99.90;;;;;;5074516;28;19908;-70
2021/05/23 04:08:37;;;;;;;;;;;17.90;99.90;;;;;;5073213;28;19908;-71
2021/05/23 04:11:13;;;;;;;;;;;17.80;99.90;;;;;;5074055;28;19928;-69
2021/05/23 04:13:41;;;;;;;;;;;17.70;99.90;;;;;;5074196;28;20017;-71
2021/05/23 04:16:11;;;;;;;;;;;17.70;99.90;;;;;;5074341;28;19908;-70
2021/05/23 04:18:37;;;;;;;;;;;17.70;99.90;;;;;;5074279;28;19995;-70
2021/05/23 04:21:05;;;;;;;;;;;17.80;99.90;;;;;;5074749;28;19974;-69
2021/05/23 04:23:31;;;;;;;;;;;17.90;99.90;;;;;;5074574;28;20006;-71
2021/05/23 04:25:58;;;;;;;;;;;17.90;99.90;;;;;;5074722;28;19908;-71
2021/05/23 04:28:25;;;;;;;;;;;18.10;99.90;;;;;;5075117;28;19908;-71
2021/05/23 04:30:52;;;;;;;;;;;18.10;99.90;;;;;;5074303;28;19912;-71
2021/05/23 04:33:18;;;;;;;;;;;18.20;99.90;;;;;;5076548;28;19916;-70
2021/05/23 04:35:45;;;;;;;;;;;18.20;99.90;;;;;;5075268;28;19994;-70
2021/05/23 04:38:12;;;;;;;;;;;18.10;99.90;;;;;;5075135;28;19944;-70
2021/05/23 04:40:39;;;;;;;;;;;18.20;99.90;;;;;;5075266;28;19916;-69
2021/05/23 04:43:06;;;;;;;;;;;18.10;99.90;;;;;;5075098;28;20007;-71
2021/05/23 04:45:33;;;;;;;;;;;18.10;99.90;;;;;;5075279;28;19920;-70
2021/05/23 04:48:00;;;;;;;;;;;18.10;99.90;;;;;;5073682;28;19908;-71
2021/05/23 04:50:26;;;;;;;;;;;18.10;99.90;;;;;;5073533;28;19916;-71
2021/05/23 04:52:53;;;;;;;;;;;18.10;99.90;;;;;;5073351;28;19943;-71
2021/05/23 04:55:20;;;;;;;;;;;18.20;99.90;;;;;;5073556;28;19909;-70
2021/05/23 04:57:46;;;;;;;;;;;18.20;99.90;;;;;;5073190;28;19931;-69
2021/05/23 05:00:13;;;;;;;;;;;18.10;99.90;;;;;;5073425;28;19909;-68
2021/05/23 05:02:44;;;;;;;;;;;18.10;99.90;;;;;;5073132;28;20290;-69
2021/05/23 05:05:11;;;;;;;;;;;18.10;99.90;;;;;;5073277;28;19913;-69
2021/05/23 05:07:38;;;;;;;;;;;18.10;99.90;;;;;;5105781;28;19955;-70
2021/05/23 05:10:05;;;;;;;;;;;18.10;99.90;;;;;;5073109;28;20270;-70
2021/05/23 05:12:32;;;;;;;;;;;18.10;99.90;;;;;;5072771;28;19970;-69
2021/05/23 05:14:59;;;;;;;;;;;18.10;99.90;;;;;;5072865;28;19930;-70
2021/05/23 05:17:25;;;;;;;;;;;18.00;99.90;;;;;;5073004;28;19915;-68
2021/05/23 05:19:52;;;;;;;;;;;18.10;99.90;;;;;;5072774;28;19943;-69
2021/05/23 05:22:19;;;;;;;;;;;18.00;99.90;;;;;;5072841;28;19909;-70
2021/05/23 05:24:45;;;;;;;;;;;17.90;99.90;;;;;;5072713;28;20011;-70
2021/05/23 05:27:12;;;;;;;;;;;17.90;99.90;;;;;;5071402;28;19970;-70
2021/05/23 05:29:39;;;;;;;;;;;17.90;99.90;;;;;;5072749;28;20003;-70
2021/05/23 05:32:06;;;;;;;;;;;17.90;99.90;;;;;;5072644;28;20021;-70
2021/05/23 05:34:32;;;;;;;;;;;17.80;99.90;;;;;;5072261;28;20340;-70
2021/05/23 05:36:59;;;;;;;;;;;17.80;99.90;;;;;;5072561;28;19908;-70
2021/05/23 05:39:26;;;;;;;;;;;17.70;99.90;;;;;;5072870;28;19908;-70
2021/05/23 05:41:52;;;;;;;;;;;17.70;99.90;;;;;;5072651;28;20003;-71
2021/05/23 05:44:19;;;;;;;;;;;17.70;99.90;;;;;;5105075;28;19989;-69
2021/05/23 05:46:45;;;;;;;;;;;17.70;99.90;;;;;;5074056;28;19909;-69
2021/05/23 05:49:12;;;;;;;;;;;17.60;99.90;;;;;;5077934;28;20355;-71
2021/05/23 05:51:39;;;;;;;;;;;17.70;99.90;;;;;;5076685;28;19919;-71
2021/05/23 05:54:05;;;;;;;;;;;17.70;99.90;;;;;;5078676;28;19908;-70
2021/05/23 05:56:33;;;;;;;;;;;17.60;99.90;;;;;;5080531;28;19959;-72
2021/05/23 05:58:59;;;;;;;;;;;17.60;99.90;;;;;;5084603;28;19922;-70
2021/05/23 06:01:26;;;;;;;;;;;17.50;99.90;;;;;;5086103;28;19976;-69
2021/05/23 06:03:53;;;;;;;;;;;17.50;99.90;;;;;;5087022;28;20328;-68
2021/05/23 06:06:19;;;;;;;;;;;17.40;99.90;;;;;;5087366;28;19908;-70
2021/05/23 06:08:46;;;;;;;;;;;17.30;99.90;;;;;;5087138;28;19930;-70
2021/05/23 06:11:12;;;;;;;;;;;17.30;99.90;;;;;;5086674;28;19944;-72
2021/05/23 06:13:39;;;;;;;;;;;17.20;99.90;;;;;;5079793;28;20022;-70
2021/05/23 06:16:06;;;;;;;;;;;17.20;99.90;;;;;;5077242;28;19908;-71
2021/05/23 06:18:32;;;;;;;;;;;17.20;99.90;;;;;;5071981;28;19931;-72
2021/05/23 06:20:59;;;;;;;;;;;17.20;99.90;;;;;;5072243;28;19908;-71
2021/05/23 06:23:26;;;;;;;;;;;17.10;99.90;;;;;;5104908;28;19923;-71
2021/05/23 06:25:54;;;;;;;;;;;17.10;99.90;;;;;;5072210;28;19913;-70
2021/05/23 06:28:20;;;;;;;;;;;17.00;99.90;;;;;;5072409;28;20337;-71
2021/05/23 06:30:47;;;;;;;;;;;17.00;99.90;;;;;;5072498;28;20002;-71
2021/05/23 06:33:14;;;;;;;;;;;17.00;99.90;;;;;;5074318;28;20286;-71
2021/05/23 06:35:40;;;;;;;;;;;17.00;99.90;;;;;;5076061;28;19943;-71
2021/05/23 06:38:07;;;;;;;;;;;17.00;99.90;;;;;;5075936;28;19947;-71
2021/05/23 06:40:34;;;;;;;;;;;17.00;99.90;;;;;;5075844;28;20328;-70
2021/05/23 06:43:00;;;;;;;;;;;17.00;99.90;;;;;;5075581;28;20062;-70
2021/05/23 06:45:28;;;;;;;;;;;17.00;99.90;;;;;;5075988;28;20011;-71
2021/05/23 06:47:54;;;;;;;;;;;17.00;99.90;;;;;;5075718;28;19908;-71
2021/05/23 06:50:21;;;;;;;;;;;17.00;99.90;;;;;;5076339;28;19924;-71
2021/05/23 06:52:48;;;;;;;;;;;17.00;99.90;;;;;;5075936;28;20396;-71
2021/05/23 06:55:14;;;;;;;;;;;17.00;99.90;;;;;;5076096;28;19913;-70
2021/05/23 06:57:41;;;;;;;;;;;17.00;99.90;;;;;;5075863;28;20351;-71
2021/05/23 07:00:08;;;;;;;;;;;17.00;99.90;;;;;;5075793;28;19951;-70
2021/05/23 07:02:35;;;;;;;;;;;16.90;99.90;;;;;;5075158;28;19962;-69
2021/05/23 07:05:02;;;;;;;;;;;16.90;99.90;;;;;;5075737;28;20328;-71
2021/05/23 07:07:28;;;;;;;;;;;16.90;99.90;;;;;;5075753;28;20313;-71
2021/05/23 07:09:55;;;;;;;;;;;16.90;99.90;;;;;;5075776;28;19913;-71
2021/05/23 07:12:22;;;;;;;;;;;16.90;99.90;;;;;;5075416;28;19924;-71
2021/05/23 07:14:48;;;;;;;;;;;16.80;99.90;;;;;;5075253;28;19932;-71
2021/05/23 07:17:15;;;;;;;;;;;16.80;99.90;;;;;;5074972;28;19909;-71
2021/05/23 07:19:42;;;;;;;;;;;16.80;99.90;;;;;;5075343;28;19912;-72
2021/05/23 07:22:09;;;;;;;;;;;16.80;99.90;;;;;;5075101;28;19909;-71
2021/05/23 07:24:35;;;;;;;;;;;16.80;99.90;;;;;;5075164;28;19995;-71
2021/05/23 07:27:02;;;;;;;;;;;16.80;99.90;;;;;;5074675;28;19909;-71
2021/05/23 07:29:29;;;;;;;;;;;16.80;99.90;;;;;;5074973;28;20321;-71
2021/05/23 07:31:55;;;;;;;;;;;16.80;99.90;;;;;;5074430;28;20033;-72
2021/05/23 07:34:22;;;;;;;;;;;16.70;99.90;;;;;;5075015;28;20274;-72
2021/05/23 07:36:49;;;;;;;;;;;16.70;99.90;;;;;;5074685;28;19913;-72
2021/05/23 07:39:16;;;;;;;;;;;16.70;99.90;;;;;;5074850;28;19915;-70
2021/05/23 07:41:43;;;;;;;;;;;16.60;99.90;;;;;;5074543;28;19980;-70
2021/05/23 07:44:10;;;;;;;;;;;16.60;99.90;;;;;;5074636;28;19955;-70
2021/05/23 07:46:36;;;;;;;;;;;16.60;99.90;;;;;;5074274;28;19909;-69
2021/05/23 07:49:03;;;;;;;;;;;16.60;99.90;;;;;;5074373;28;19920;-70
2021/05/23 07:51:30;;;;;;;;;;;16.60;99.90;;;;;;5074938;28;19912;-70
2021/05/23 07:53:56;;;;;;;;;;;16.50;99.90;;;;;;5074642;28;19913;-71
2021/05/23 07:56:23;;;;;;;;;;;16.50;99.90;;;;;;5074348;28;19908;-71
2021/05/23 07:58:50;;;;;;;;;;;16.50;99.90;;;;;;5074543;28;20276;-71
2021/05/23 08:01:16;;;;;;;;;;;16.50;99.90;;;;;;5073917;28;20359;-71
2021/05/23 08:03:43;;;;;;;;;;;16.50;99.90;;;;;;5074478;28;20362;-71
2021/05/23 08:06:11;;;;;;;;;;;16.40;99.90;;;;;;5074387;28;19909;-71
2021/05/23 08:08:38;;;;;;;;;;;16.40;99.90;;;;;;5074318;28;19954;-71
2021/05/23 08:11:04;;;;;;;;;;;16.40;99.90;;;;;;5074067;28;19948;-71
2021/05/23 08:13:31;;;;;;;;;;;16.40;99.90;;;;;;5074212;28;19927;-70
2021/05/23 08:15:59;;;;;;;;;;;16.30;99.90;;;;;;5074206;28;19955;-70
2021/05/23 08:18:29;;;;;;;;;;;16.30;99.90;;;;;;5073648;28;20014;-71
2021/05/23 08:20:56;;;;;;;;;;;16.30;99.90;;;;;;5073960;28;19965;-70
2021/05/23 08:23:24;;;;;;;;;;;16.30;99.90;;;;;;5074111;28;20348;-69
2021/05/23 08:25:51;;;;;;;;;;;16.30;99.90;;;;;;5073690;28;20310;-70
2021/05/23 08:28:18;;;;;;;;;;;16.30;99.90;;;;;;5073967;28;20371;-71
2021/05/23 08:30:45;;;;;;;;;;;16.30;99.90;;;;;;5074146;28;19908;-69
2021/05/23 08:33:12;;;;;;;;;;;16.30;99.90;;;;;;5073091;28;19943;-71
2021/05/23 08:35:39;;;;;;;;;;;16.20;99.90;;;;;;5073729;28;19944;-70
2021/05/23 08:38:06;;;;;;;;;;;16.20;99.90;;;;;;5073575;28;19948;-71
2021/05/23 08:40:33;;;;;;;;;;;16.20;99.90;;;;;;5073722;28;19908;-71
2021/05/23 08:43:01;;;;;;;;;;;16.20;99.90;;;;;;5073208;28;20015;-70
2021/05/23 08:45:28;;;;;;;;;;;16.20;99.90;;;;;;5073470;28;19920;-70
2021/05/23 08:47:55;;;;;;;;;;;16.10;99.90;;;;;;5081613;28;19893;-70
2021/05/23 08:50:23;;;;;;;;;;;16.10;99.90;;;;;;5087480;28;19912;-69
2021/05/23 08:52:57;;;;;;;;;;;16.10;99.90;;;;;;5088231;28;19916;-69
2021/05/23 08:55:24;;;;;;;;;;;16.10;99.90;;;;;;5088822;28;19908;-69
2021/05/23 08:57:52;;;;;;;;;;;16.00;99.90;;;;;;5090370;28;20420;-71
2021/05/23 09:00:19;;;;;;;;;;;16.10;99.90;;;;;;5089637;28;19919;-71
2021/05/23 09:03:06;;;;;;;;;;;16.10;99.90;;;;;;5086915;28;20378;-71
2021/05/23 09:05:33;;;;;;;;;;;16.10;99.90;;;;;;5077360;28;20271;-71
2021/05/23 09:08:01;;;;;;;;;;;16.10;99.90;;;;;;5074250;28;20294;-70
2021/05/23 09:10:32;;;;;;;;;;;16.20;99.90;;;;;;5073684;28;19935;-70
2021/05/23 09:12:59;;;;;;;;;;;16.20;99.90;;;;;;5073475;28;19916;-70
2021/05/23 09:15:27;;;;;;;;;;;16.20;99.90;;;;;;5073762;28;19916;-72
2021/05/23 09:18:01;;;;;;;;;;;16.20;99.90;;;;;;5074878;28;20011;-72
2021/05/23 09:20:28;;;;;;;;;;;16.10;99.90;;;;;;5076603;28;19934;-71
2021/05/23 09:22:55;;;;;;;;;;;16.10;99.90;;;;;;5077133;28;19915;-71
2021/05/23 09:25:32;;;;;;;;;;;16.10;99.90;;;;;;5078350;28;19919;-72
2021/05/23 09:27:59;;;;;;;;;;;16.00;99.90;;;;;;5084383;28;19982;-70
2021/05/23 09:30:27;;;;;;;;;;;16.00;99.90;;;;;;5084723;28;20359;-71
2021/05/23 09:32:56;;;;;;;;;;;16.10;99.90;;;;;;5078246;28;19917;-72
2021/05/23 09:35:24;;;;;;;;;;;16.00;99.90;;;;;;5077370;28;20378;-72
2021/05/23 09:38:00;;;;;;;;;;;16.10;99.90;;;;;;5079154;28;19953;-71
2021/05/23 09:40:29;;;;;;;;;;;16.10;99.90;;;;;;5083879;28;20017;-71
2021/05/23 09:42:56;;;;;;;;;;;16.10;99.90;;;;;;5086691;28;19922;-72
2021/05/23 09:45:25;;;;;;;;;;;16.10;99.90;;;;;;5086470;28;19919;-71
2021/05/23 09:47:56;;;;;;;;;;;16.10;99.90;;;;;;5075384;28;20281;-71
2021/05/23 09:50:37;;;;;;;;;;;16.00;99.90;;;;;;5072667;28;19908;-71
2021/05/23 09:53:04;;;;;;;;;;;16.00;99.90;;;;;;5072459;28;20296;-72
2021/05/23 09:55:31;;;;;;;;;;;16.00;99.90;;;;;;5072865;28;19918;-70
2021/05/23 09:57:58;;;;;;;;;;;16.00;99.90;;;;;;5072878;28;19908;-71
2021/05/23 10:00:24;;;;;;;;;;;16.00;99.90;;;;;;5072228;28;19931;-72
2021/05/23 10:02:55;;;;;;;;;;;16.00;99.90;;;;;;5072572;28;20367;-73
2021/05/23 10:05:22;;;;;;;;;;;16.00;99.90;;;;;;5072540;28;19912;-71
2021/05/23 10:07:49;;;;;;;;;;;16.00;99.90;;;;;;5076380;28;19909;-72
2021/05/23 10:10:16;;;;;;;;;;;16.00;99.90;;;;;;5076464;28;19908;-70
2021/05/23 10:12:43;;;;;;;;;;;15.90;99.90;;;;;;5076370;28;19924;-69
2021/05/23 10:15:11;;;;;;;;;;;15.90;99.90;;;;;;5075880;28;19909;-71
2021/05/23 10:17:38;;;;;;;;;;;15.80;99.90;;;;;;5077332;28;19912;-71
2021/05/23 10:20:06;;;;;;;;;;;15.80;99.90;;;;;;5079910;28;19909;-71
2021/05/23 10:22:34;;;;;;;;;;;15.70;99.90;;;;;;5082056;28;19947;-70
2021/05/23 10:25:03;;;;;;;;;;;15.70;99.90;;;;;;5082185;28;19912;-70
2021/05/23 10:27:32;;;;;;;;;;;15.70;99.90;;;;;;5089202;28;19908;-71
2021/05/23 10:29:59;;;;;;;;;;;15.60;99.90;;;;;;5088746;28;19952;-71
2021/05/23 10:32:28;;;;;;;;;;;15.50;99.90;;;;;;5089470;28;19917;-70
2021/05/23 10:34:56;;;;;;;;;;;15.50;99.90;;;;;;5089894;28;19919;-71
2021/05/23 10:37:26;;;;;;;;;;;15.50;99.90;;;;;;5090478;28;19943;-70
2021/05/23 10:39:54;;;;;;;;;;;15.50;99.90;;;;;;5089223;28;19909;-71
2021/05/23 10:42:23;;;;;;;;;;;15.50;99.90;;;;;;5089956;28;19915;-69
2021/05/23 10:44:50;;;;;;;;;;;15.40;99.90;;;;;;5069632;28;19921;-71
2021/05/23 10:47:23;;;;;;;;;;;15.40;99.90;;;;;;5061417;28;19932;-71
2021/05/23 10:49:55;;;;;;;;;;;15.40;99.90;;;;;;5055941;28;19908;-70
2021/05/23 10:52:23;;;;;;;;;;;15.40;99.90;;;;;;5055577;28;20010;-72
2021/05/23 10:54:59;;;;;;;;;;;15.40;99.90;;;;;;5055278;28;19909;-70
2021/05/23 10:57:26;;;;;;;;;;;15.40;99.90;;;;;;5055793;28;20279;-72
2021/05/23 11:00:03;;;;;;;;;;;15.30;99.90;;;;;;5055133;28;20311;-72
2021/05/23 11:02:41;;;;;;;;;;;15.30;99.90;;;;;;5055660;28;19909;-71
2021/05/23 11:05:09;;;;;;;;;;;15.30;99.90;;;;;;5055337;28;19912;-70
2021/05/23 11:07:36;;;;;;;;;;;15.30;99.90;;;;;;5055680;28;19909;-71
2021/05/23 11:10:23;;;;;;;;;;;15.30;99.90;;;;;;5055303;28;20429;-70
2021/05/23 11:13:00;;;;;;;;;;;15.30;99.90;;;;;;5054956;28;20372;-71
2021/05/23 11:15:39;;;;;;;;;;;15.30;99.90;;;;;;5054776;28;19962;-72
2021/05/23 11:18:06;;;;;;;;;;;15.20;99.90;;;;;;5054699;28;19995;-71
2021/05/23 11:20:32;;;;;;;;;;;15.20;99.90;;;;;;5055174;28;20007;-71
2021/05/23 11:23:03;;;;;;;;;;;15.20;99.90;;;;;;5054838;28;20390;-71
2021/05/23 11:25:30;;;;;;;;;;;15.20;99.90;;;;;;5054889;28;19909;-71
2021/05/23 11:27:58;;;;;;;;;;;15.20;99.90;;;;;;5054848;28;19959;-71
2021/05/23 11:30:26;;;;;;;;;;;15.10;99.90;;;;;;5054550;28;20383;-68
2021/05/23 11:33:00;;;;;;;;;;;15.10;99.90;;;;;;5054527;28;19917;-69
2021/05/23 11:35:27;;;;;;;;;;;15.10;99.90;;;;;;5054924;28;20287;-69
2021/05/23 11:37:55;;;;;;;;;;;15.00;99.90;;;;;;5054839;28;19978;-71
2021/05/23 11:40:22;;;;;;;;;;;15.00;99.90;;;;;;5054730;28;19913;-71
2021/05/23 11:42:49;;;;;;;;;;;15.00;99.90;;;;;;5058029;28;20363;-70
2021/05/23 11:45:20;;;;;;;;;;;15.00;99.90;;;;;;5074430;28;19947;-71
2021/05/23 11:47:48;;;;;;;;;;;15.00;99.90;;;;;;5074775;28;19952;-71
2021/05/23 11:50:24;;;;;;;;;;;14.90;99.90;;;;;;5074848;28;19908;-71
2021/05/23 11:52:54;;;;;;;;;;;14.90;99.90;;;;;;5074378;28;20333;-71
2021/05/23 11:55:22;;;;;;;;;;;14.90;99.90;;;;;;5074458;28;19912;-68
2021/05/23 11:57:50;;;;;;;;;;;14.90;99.90;;;;;;5074573;28;20391;-69
2021/05/23 12:00:21;;;;;;;;;;;14.80;99.90;;;;;;5073869;28;19913;-69
2021/05/23 12:02:58;;;;;;;;;;;14.80;99.90;;;;;;5074252;28;19908;-69
2021/05/23 12:05:45;;;;;;;;;;;14.80;99.90;;;;;;5074349;28;19952;-68
2021/05/23 12:08:17;;;;;;;;;;;14.80;99.90;;;;;;5074291;28;19913;-69
2021/05/23 12:10:45;;;;;;;;;;;14.80;99.90;;;;;;5074005;28;19909;-70
2021/05/23 12:13:12;;;;;;;;;;;14.80;99.90;;;;;;5074169;28;20015;-69
2021/05/23 12:15:38;;;;;;;;;;;14.70;99.90;;;;;;5073635;28;19916;-72
2021/05/23 12:18:05;;;;;;;;;;;14.60;99.90;;;;;;5074267;28;19912;-71
2021/05/23 12:20:31;;;;;;;;;;;14.60;99.90;;;;;;5074129;28;19919;-72
2021/05/23 12:22:58;;;;;;;;;;;14.50;99.90;;;;;;5073886;28;19908;-71
2021/05/23 12:25:25;;;;;;;;;;;14.40;99.90;;;;;;5073934;28;19912;-70
2021/05/23 12:27:53;;;;;;;;;;;14.40;99.90;;;;;;5073853;28;20282;-68
2021/05/23 12:30:21;;;;;;;;;;;14.30;99.90;;;;;;5072669;28;19909;-71
2021/05/23 12:33:06;;;;;;;;;;;14.40;99.90;;;;;;5073575;28;19927;-71
2021/05/23 12:35:37;;;;;;;;;;;14.30;99.90;;;;;;5073837;28;19908;-72
2021/05/23 12:38:07;;;;;;;;;;;14.20;99.90;;;;;;5074158;28;19909;-70
2021/05/23 12:40:35;;;;;;;;;;;14.20;99.90;;;;;;5076773;28;19919;-72
2021/05/23 12:43:09;;;;;;;;;;;14.20;99.90;;;;;;5079400;28;20007;-71
2021/05/23 12:45:35;;;;;;;;;;;14.20;99.90;;;;;;5073630;28;19959;-72
2021/05/23 12:48:06;;;;;;;;;;;14.20;99.90;;;;;;5073677;28;19908;-71
2021/05/23 12:50:37;;;;;;;;;;;14.10;99.90;;;;;;5073736;28;19913;-72
2021/05/23 12:53:04;;;;;;;;;;;14.10;99.90;;;;;;5073399;28;19952;-71
2021/05/23 12:55:31;;;;;;;;;;;14.10;99.90;;;;;;5073361;28;19908;-72
2021/05/23 12:57:59;;;;;;;;;;;14.10;99.90;;;;;;5073488;28;19908;-72
2021/05/23 13:00:27;;;;;;;;;;;14.10;99.90;;;;;;5073570;28;19908;-73
2021/05/23 13:03:04;;;;;;;;;;;14.10;99.90;;;;;;5073250;28;19908;-72
2021/05/23 13:05:30;;;;;;;;;;;14.10;99.90;;;;;;5106020;28;20287;-73
2021/05/23 13:07:57;;;;;;;;;;;14.10;99.90;;;;;;5073332;28;19926;-72
2021/05/23 13:10:24;;;;;;;;;;;14.20;99.90;;;;;;5073238;28;19908;-71
2021/05/23 13:13:00;;;;;;;;;;;14.20;99.90;;;;;;5073041;28;19917;-70
2021/05/23 13:15:28;;;;;;;;;;;14.20;99.90;;;;;;5088851;28;19956;-72
2021/05/23 13:17:55;;;;;;;;;;;14.20;99.90;;;;;;5073202;28;19909;-72
2021/05/23 13:20:29;;;;;;;;;;;14.20;99.90;;;;;;5073177;28;19912;-71
2021/05/23 13:22:55;;;;;;;;;;;14.10;99.90;;;;;;5072954;28;19917;-73
2021/05/23 13:25:24;;;;;;;;;;;14.10;99.90;;;;;;5073007;28;19962;-72
2021/05/23 13:27:51;;;;;;;;;;;14.10;99.90;;;;;;5073277;28;19913;-71
2021/05/23 13:30:18;;;;;;;;;;;14.00;99.90;;;;;;5073244;28;19916;-72
2021/05/23 13:32:47;;;;;;;;;;;14.00;99.90;;;;;;5072937;28;19916;-71
2021/05/23 13:35:14;;;;;;;;;;;14.00;99.90;;;;;;5072984;28;19909;-72
2021/05/23 13:37:41;;;;;;;;;;;14.00;99.90;;;;;;5073056;28;20019;-71
2021/05/23 13:40:08;;;;;;;;;;;14.00;99.90;;;;;;5072762;28;19916;-72
2021/05/23 13:42:35;;;;;;;;;;;14.00;99.90;;;;;;5072905;28;19915;-71
2021/05/23 13:45:02;;;;;;;;;;;14.00;99.90;;;;;;5072927;28;19960;-72
2021/05/23 13:47:29;;;;;;;;;;;14.00;99.90;;;;;;5073053;28;19909;-72
2021/05/23 13:49:55;;;;;;;;;;;14.00;99.90;;;;;;5073032;28;19916;-73
2021/05/23 13:52:22;;;;;;;;;;;14.00;99.90;;;;;;5073175;28;19921;-72
2021/05/23 13:54:49;;;;;;;;;;;13.90;99.90;;;;;;5072476;28;19908;-72
2021/05/23 13:57:15;;;;;;;;;;;13.90;99.90;;;;;;5072985;28;19915;-72
2021/05/23 13:59:42;;;;;;;;;;;13.90;99.90;;;;;;5072852;28;20385;-72
2021/05/23 14:02:08;;;;;;;;;;;13.90;99.90;;;;;;5072812;28;19909;-72
2021/05/23 14:04:35;;;;;;;;;;;13.90;99.90;;;;;;5072818;28;19947;-72
2021/05/23 14:07:02;;;;;;;;;;;13.80;99.90;;;;;;5072838;28;19966;-72
2021/05/23 14:09:29;;;;;;;;;;;13.90;99.90;;;;;;5072602;28;19910;-71
2021/05/23 14:11:57;;;;;;;;;;;13.90;99.90;;;;;;5072552;28;19920;-72
2021/05/23 14:14:24;;;;;;;;;;;13.80;99.90;;;;;;5072769;28;19992;-71
2021/05/23 14:16:50;;;;;;;;;;;13.80;99.90;;;;;;5072352;28;19908;-70
2021/05/23 14:19:17;;;;;;;;;;;13.80;99.90;;;;;;5072698;28;19908;-70
2021/05/23 14:21:44;;;;;;;;;;;13.80;99.90;;;;;;5105167;28;19915;-71